Terminal Aerodrome Forecast
Issued by NWS

Home | Current Version | Previous Version | Text Only | Print | Product List | Glossary On
Versions: 1 2 3 4 5 6 7 8 9 10 11 12
000
FTUS45 KREV 162320
TAFRNO
TAF
KRNO 162320Z 1700/1724 20005KT P6SM FEW025
     FM170400 VRB03KT P6SM BKN015
     FM171200 00000KT 1SM BCFG BKN015
     FM172100 20005KT P6SM FEW025=

USA.gov is the U.S. government's official web portal to all federal, state and local government web resources and services.